sensor_id;sensor_type;location;lat;lon;timestamp;P1;durP1;ratioP1;P2;durP2;ratioP2
13879;SDS011;7010;48.200;16.332;2022-12-18T00:00:05;4.80;;;4.27;;
13879;SDS011;7010;48.200;16.332;2022-12-18T00:02:34;3.93;;;3.60;;
13879;SDS011;7010;48.200;16.332;2022-12-18T00:05:03;5.07;;;3.87;;
13879;SDS011;7010;48.200;16.332;2022-12-18T00:07:35;5.03;;;4.60;;
13879;SDS011;7010;48.200;16.332;2022-12-18T00:10:04;5.17;;;4.67;;
13879;SDS011;7010;48.200;16.332;2022-12-18T00:12:35;5.83;;;5.17;;
13879;SDS011;7010;48.200;16.332;2022-12-18T00:15:03;4.47;;;3.87;;
13879;SDS011;7010;48.200;16.332;2022-12-18T00:17:32;6.00;;;5.40;;
13879;SDS011;7010;48.200;16.332;2022-12-18T00:20:01;4.40;;;4.00;;
13879;SDS011;7010;48.200;16.332;2022-12-18T00:22:29;4.43;;;4.03;;
13879;SDS011;7010;48.200;16.332;2022-12-18T00:24:58;5.97;;;5.03;;
13879;SDS011;7010;48.200;16.332;2022-12-18T00:27:26;4.60;;;4.20;;
13879;SDS011;7010;48.200;16.332;2022-12-18T00:29:56;4.80;;;4.30;;
13879;SDS011;7010;48.200;16.332;2022-12-18T00:32:24;8.33;;;4.47;;
13879;SDS011;7010;48.200;16.332;2022-12-18T00:34:52;5.63;;;4.30;;
13879;SDS011;7010;48.200;16.332;2022-12-18T00:37:20;5.30;;;4.80;;
13879;SDS011;7010;48.200;16.332;2022-12-18T00:39:49;4.60;;;4.13;;
13879;SDS011;7010;48.200;16.332;2022-12-18T00:42:17;6.23;;;4.30;;
13879;SDS011;7010;48.200;16.332;2022-12-18T00:45:04;4.83;;;4.20;;
13879;SDS011;7010;48.200;16.332;2022-12-18T00:47:38;5.63;;;4.43;;
13879;SDS011;7010;48.200;16.332;2022-12-18T00:50:07;4.23;;;3.87;;
13879;SDS011;7010;48.200;16.332;2022-12-18T00:52:40;8.03;;;4.93;;
13879;SDS011;7010;48.200;16.332;2022-12-18T00:55:08;3.90;;;3.60;;
13879;SDS011;7010;48.200;16.332;2022-12-18T00:57:37;3.93;;;3.53;;
13879;SDS011;7010;48.200;16.332;2022-12-18T01:00:09;5.53;;;4.30;;
13879;SDS011;7010;48.200;16.332;2022-12-18T01:02:39;5.50;;;4.20;;
13879;SDS011;7010;48.200;16.332;2022-12-18T01:05:09;4.17;;;3.50;;
13879;SDS011;7010;48.200;16.332;2022-12-18T01:07:38;10.63;;;4.30;;
13879;SDS011;7010;48.200;16.332;2022-12-18T01:10:07;4.30;;;3.90;;
13879;SDS011;7010;48.200;16.332;2022-12-18T01:12:37;4.67;;;4.03;;
13879;SDS011;7010;48.200;16.332;2022-12-18T01:15:06;4.23;;;3.77;;
13879;SDS011;7010;48.200;16.332;2022-12-18T01:17:37;4.10;;;3.70;;
13879;SDS011;7010;48.200;16.332;2022-12-18T01:20:05;4.20;;;3.80;;
13879;SDS011;7010;48.200;16.332;2022-12-18T01:22:35;4.90;;;4.43;;
13879;SDS011;7010;48.200;16.332;2022-12-18T01:25:04;6.37;;;4.30;;
13879;SDS011;7010;48.200;16.332;2022-12-18T01:27:33;5.30;;;4.80;;
13879;SDS011;7010;48.200;16.332;2022-12-18T01:30:02;5.50;;;4.97;;
13879;SDS011;7010;48.200;16.332;2022-12-18T01:32:32;6.43;;;5.77;;
13879;SDS011;7010;48.200;16.332;2022-12-18T01:35:01;7.87;;;6.20;;
13879;SDS011;7010;48.200;16.332;2022-12-18T01:37:29;6.10;;;5.50;;
13879;SDS011;7010;48.200;16.332;2022-12-18T01:39:57;6.20;;;5.50;;
13879;SDS011;7010;48.200;16.332;2022-12-18T01:42:26;8.30;;;6.23;;
13879;SDS011;7010;48.200;16.332;2022-12-18T01:44:59;6.53;;;5.93;;
13879;SDS011;7010;48.200;16.332;2022-12-18T01:47:34;12.83;;;7.23;;
13879;SDS011;7010;48.200;16.332;2022-12-18T01:50:07;7.40;;;6.33;;
13879;SDS011;7010;48.200;16.332;2022-12-18T01:52:40;6.77;;;6.07;;
13879;SDS011;7010;48.200;16.332;2022-12-18T01:55:10;20.93;;;7.27;;
13879;SDS011;7010;48.200;16.332;2022-12-18T01:57:40;9.60;;;7.37;;
13879;SDS011;7010;48.200;16.332;2022-12-18T02:00:09;7.07;;;6.43;;
13879;SDS011;7010;48.200;16.332;2022-12-18T02:02:41;8.20;;;7.03;;
13879;SDS011;7010;48.200;16.332;2022-12-18T02:05:12;8.23;;;7.43;;
13879;SDS011;7010;48.200;16.332;2022-12-18T02:07:46;8.77;;;7.33;;
13879;SDS011;7010;48.200;16.332;2022-12-18T02:10:23;8.17;;;6.70;;
13879;SDS011;7010;48.200;16.332;2022-12-18T02:12:57;8.57;;;7.13;;
13879;SDS011;7010;48.200;16.332;2022-12-18T02:15:36;7.23;;;6.43;;
13879;SDS011;7010;48.200;16.332;2022-12-18T02:18:12;12.17;;;7.60;;
13879;SDS011;7010;48.200;16.332;2022-12-18T02:20:44;9.33;;;7.60;;
13879;SDS011;7010;48.200;16.332;2022-12-18T02:23:19;9.30;;;8.30;;
13879;SDS011;7010;48.200;16.332;2022-12-18T02:26:06;10.50;;;8.03;;
13879;SDS011;7010;48.200;16.332;2022-12-18T02:28:42;9.97;;;7.67;;
13879;SDS011;7010;48.200;16.332;2022-12-18T02:31:14;12.30;;;7.80;;
13879;SDS011;7010;48.200;16.332;2022-12-18T02:33:49;12.00;;;8.73;;
13879;SDS011;7010;48.200;16.332;2022-12-18T02:36:24;14.50;;;9.10;;
13879;SDS011;7010;48.200;16.332;2022-12-18T02:38:55;10.43;;;8.50;;
13879;SDS011;7010;48.200;16.332;2022-12-18T02:41:27;10.80;;;7.60;;
13879;SDS011;7010;48.200;16.332;2022-12-18T02:43:59;7.63;;;6.83;;
13879;SDS011;7010;48.200;16.332;2022-12-18T02:46:31;9.33;;;7.40;;
13879;SDS011;7010;48.200;16.332;2022-12-18T02:49:05;9.70;;;7.10;;
13879;SDS011;7010;48.200;16.332;2022-12-18T02:51:42;10.23;;;7.43;;
13879;SDS011;7010;48.200;16.332;2022-12-18T02:54:20;8.37;;;7.37;;
13879;SDS011;7010;48.200;16.332;2022-12-18T02:56:58;8.63;;;7.07;;
13879;SDS011;7010;48.200;16.332;2022-12-18T02:59:34;9.20;;;8.07;;
13879;SDS011;7010;48.200;16.332;2022-12-18T03:02:10;10.37;;;8.67;;
13879;SDS011;7010;48.200;16.332;2022-12-18T03:04:47;8.80;;;7.90;;
13879;SDS011;7010;48.200;16.332;2022-12-18T03:07:19;10.60;;;8.00;;
13879;SDS011;7010;48.200;16.332;2022-12-18T03:09:54;10.53;;;8.03;;
13879;SDS011;7010;48.200;16.332;2022-12-18T03:12:27;10.17;;;8.07;;
13879;SDS011;7010;48.200;16.332;2022-12-18T03:14:57;11.33;;;8.33;;
13879;SDS011;7010;48.200;16.332;2022-12-18T03:17:30;14.23;;;8.37;;
13879;SDS011;7010;48.200;16.332;2022-12-18T03:20:03;9.13;;;7.30;;
13879;SDS011;7010;48.200;16.332;2022-12-18T03:22:34;8.33;;;7.53;;
13879;SDS011;7010;48.200;16.332;2022-12-18T03:25:05;10.23;;;8.07;;
13879;SDS011;7010;48.200;16.332;2022-12-18T03:27:38;11.37;;;7.70;;
13879;SDS011;7010;48.200;16.332;2022-12-18T03:30:12;13.13;;;8.63;;
13879;SDS011;7010;48.200;16.332;2022-12-18T03:32:43;10.90;;;8.17;;
13879;SDS011;7010;48.200;16.332;2022-12-18T03:35:18;9.93;;;8.17;;
13879;SDS011;7010;48.200;16.332;2022-12-18T03:37:52;9.60;;;8.60;;
13879;SDS011;7010;48.200;16.332;2022-12-18T03:40:21;10.67;;;8.90;;
13879;SDS011;7010;48.200;16.332;2022-12-18T03:42:59;11.13;;;8.20;;
13879;SDS011;7010;48.200;16.332;2022-12-18T03:45:34;11.97;;;9.33;;
13879;SDS011;7010;48.200;16.332;2022-12-18T03:48:10;11.70;;;9.33;;
13879;SDS011;7010;48.200;16.332;2022-12-18T03:50:46;8.73;;;7.60;;
13879;SDS011;7010;48.200;16.332;2022-12-18T03:53:23;10.07;;;8.70;;
13879;SDS011;7010;48.200;16.332;2022-12-18T03:56:00;8.90;;;7.60;;
13879;SDS011;7010;48.200;16.332;2022-12-18T03:58:31;10.13;;;8.37;;
13879;SDS011;7010;48.200;16.332;2022-12-18T04:01:03;8.97;;;7.70;;
13879;SDS011;7010;48.200;16.332;2022-12-18T04:03:36;12.67;;;8.13;;
13879;SDS011;7010;48.200;16.332;2022-12-18T04:06:06;10.07;;;7.60;;
13879;SDS011;7010;48.200;16.332;2022-12-18T04:08:35;11.70;;;9.50;;
13879;SDS011;7010;48.200;16.332;2022-12-18T04:11:04;11.87;;;7.47;;
13879;SDS011;7010;48.200;16.332;2022-12-18T04:13:36;11.40;;;8.67;;
13879;SDS011;7010;48.200;16.332;2022-12-18T04:16:06;9.80;;;8.03;;
13879;SDS011;7010;48.200;16.332;2022-12-18T04:18:36;9.33;;;8.33;;
13879;SDS011;7010;48.200;16.332;2022-12-18T04:21:05;14.30;;;9.00;;
13879;SDS011;7010;48.200;16.332;2022-12-18T04:23:33;15.87;;;8.60;;
13879;SDS011;7010;48.200;16.332;2022-12-18T04:26:02;11.57;;;8.60;;
13879;SDS011;7010;48.200;16.332;2022-12-18T04:28:30;12.33;;;8.93;;
13879;SDS011;7010;48.200;16.332;2022-12-18T04:31:00;10.87;;;8.30;;
13879;SDS011;7010;48.200;16.332;2022-12-18T04:33:28;9.63;;;8.20;;
13879;SDS011;7010;48.200;16.332;2022-12-18T04:35:57;13.43;;;9.40;;
13879;SDS011;7010;48.200;16.332;2022-12-18T04:38:25;15.40;;;8.80;;
13879;SDS011;7010;48.200;16.332;2022-12-18T04:40:54;10.63;;;9.27;;
13879;SDS011;7010;48.200;16.332;2022-12-18T04:43:22;11.47;;;9.47;;
13879;SDS011;7010;48.200;16.332;2022-12-18T04:45:50;12.27;;;9.53;;
13879;SDS011;7010;48.200;16.332;2022-12-18T04:48:21;12.13;;;9.13;;
13879;SDS011;7010;48.200;16.332;2022-12-18T04:50:49;11.13;;;8.90;;
13879;SDS011;7010;48.200;16.332;2022-12-18T04:53:18;14.07;;;10.17;;
13879;SDS011;7010;48.200;16.332;2022-12-18T04:55:46;11.77;;;9.87;;
13879;SDS011;7010;48.200;16.332;2022-12-18T04:58:15;9.73;;;7.93;;
13879;SDS011;7010;48.200;16.332;2022-12-18T05:00:43;13.83;;;9.80;;
13879;SDS011;7010;48.200;16.332;2022-12-18T05:03:11;10.13;;;8.37;;
13879;SDS011;7010;48.200;16.332;2022-12-18T05:05:41;10.77;;;8.63;;
13879;SDS011;7010;48.200;16.332;2022-12-18T05:08:09;8.97;;;7.33;;
13879;SDS011;7010;48.200;16.332;2022-12-18T05:10:38;8.00;;;7.17;;
13879;SDS011;7010;48.200;16.332;2022-12-18T05:13:06;13.13;;;8.17;;
13879;SDS011;7010;48.200;16.332;2022-12-18T05:15:35;9.57;;;7.00;;
13879;SDS011;7010;48.200;16.332;2022-12-18T05:18:03;12.50;;;9.00;;
13879;SDS011;7010;48.200;16.332;2022-12-18T05:20:32;10.27;;;8.27;;
13879;SDS011;7010;48.200;16.332;2022-12-18T05:23:02;12.87;;;8.20;;
13879;SDS011;7010;48.200;16.332;2022-12-18T05:25:30;7.73;;;6.77;;
13879;SDS011;7010;48.200;16.332;2022-12-18T05:27:59;10.33;;;8.00;;
13879;SDS011;7010;48.200;16.332;2022-12-18T05:30:27;9.63;;;7.87;;
13879;SDS011;7010;48.200;16.332;2022-12-18T05:32:56;9.60;;;8.10;;
13879;SDS011;7010;48.200;16.332;2022-12-18T05:35:24;9.10;;;7.73;;
13879;SDS011;7010;48.200;16.332;2022-12-18T05:37:53;12.73;;;8.67;;
13879;SDS011;7010;48.200;16.332;2022-12-18T05:40:23;10.87;;;8.20;;
13879;SDS011;7010;48.200;16.332;2022-12-18T05:42:51;13.00;;;8.77;;
13879;SDS011;7010;48.200;16.332;2022-12-18T05:45:20;9.87;;;8.73;;
13879;SDS011;7010;48.200;16.332;2022-12-18T05:47:48;10.10;;;8.50;;
13879;SDS011;7010;48.200;16.332;2022-12-18T05:50:16;12.30;;;9.20;;
13879;SDS011;7010;48.200;16.332;2022-12-18T05:52:45;12.43;;;8.60;;
13879;SDS011;7010;48.200;16.332;2022-12-18T05:55:13;9.33;;;7.87;;
13879;SDS011;7010;48.200;16.332;2022-12-18T05:57:43;10.57;;;7.67;;
13879;SDS011;7010;48.200;16.332;2022-12-18T06:00:12;9.07;;;8.07;;
13879;SDS011;7010;48.200;16.332;2022-12-18T06:02:42;8.53;;;7.53;;
13879;SDS011;7010;48.200;16.332;2022-12-18T06:05:14;9.57;;;8.40;;
13879;SDS011;7010;48.200;16.332;2022-12-18T06:07:42;11.47;;;8.77;;
13879;SDS011;7010;48.200;16.332;2022-12-18T06:10:11;12.27;;;9.33;;
13879;SDS011;7010;48.200;16.332;2022-12-18T06:12:40;12.23;;;9.40;;
13879;SDS011;7010;48.200;16.332;2022-12-18T06:15:10;9.87;;;8.50;;
13879;SDS011;7010;48.200;16.332;2022-12-18T06:17:39;9.27;;;7.63;;
13879;SDS011;7010;48.200;16.332;2022-12-18T06:20:08;7.73;;;6.93;;
13879;SDS011;7010;48.200;16.332;2022-12-18T06:22:37;10.40;;;7.37;;
13879;SDS011;7010;48.200;16.332;2022-12-18T06:25:05;11.13;;;8.17;;
13879;SDS011;7010;48.200;16.332;2022-12-18T06:27:35;13.17;;;10.10;;
13879;SDS011;7010;48.200;16.332;2022-12-18T06:30:03;13.30;;;9.73;;
13879;SDS011;7010;48.200;16.332;2022-12-18T06:32:35;12.27;;;8.30;;
13879;SDS011;7010;48.200;16.332;2022-12-18T06:35:03;12.93;;;9.50;;
13879;SDS011;7010;48.200;16.332;2022-12-18T06:37:33;13.63;;;9.80;;
13879;SDS011;7010;48.200;16.332;2022-12-18T06:40:01;19.53;;;10.53;;
13879;SDS011;7010;48.200;16.332;2022-12-18T06:42:29;11.87;;;9.53;;
13879;SDS011;7010;48.200;16.332;2022-12-18T06:44:58;13.80;;;10.33;;
13879;SDS011;7010;48.200;16.332;2022-12-18T06:47:26;9.43;;;8.07;;
13879;SDS011;7010;48.200;16.332;2022-12-18T06:49:56;15.17;;;9.50;;
13879;SDS011;7010;48.200;16.332;2022-12-18T06:52:25;15.87;;;10.43;;
13879;SDS011;7010;48.200;16.332;2022-12-18T06:54:53;16.83;;;11.07;;
13879;SDS011;7010;48.200;16.332;2022-12-18T06:57:21;14.20;;;9.87;;
13879;SDS011;7010;48.200;16.332;2022-12-18T06:59:50;14.43;;;11.07;;
13879;SDS011;7010;48.200;16.332;2022-12-18T07:02:18;13.73;;;10.57;;
13879;SDS011;7010;48.200;16.332;2022-12-18T07:04:50;15.23;;;11.00;;
13879;SDS011;7010;48.200;16.332;2022-12-18T07:07:19;11.97;;;10.37;;
13879;SDS011;7010;48.200;16.332;2022-12-18T07:09:49;21.00;;;11.20;;
13879;SDS011;7010;48.200;16.332;2022-12-18T07:12:17;13.17;;;9.93;;
13879;SDS011;7010;48.200;16.332;2022-12-18T07:14:46;12.13;;;10.43;;
13879;SDS011;7010;48.200;16.332;2022-12-18T07:17:14;13.07;;;9.17;;
13879;SDS011;7010;48.200;16.332;2022-12-18T07:19:43;14.07;;;11.00;;
13879;SDS011;7010;48.200;16.332;2022-12-18T07:22:11;17.30;;;11.70;;
13879;SDS011;7010;48.200;16.332;2022-12-18T07:24:41;13.10;;;10.10;;
13879;SDS011;7010;48.200;16.332;2022-12-18T07:27:09;16.03;;;10.87;;
13879;SDS011;7010;48.200;16.332;2022-12-18T07:29:38;14.67;;;10.83;;
13879;SDS011;7010;48.200;16.332;2022-12-18T07:32:06;11.83;;;9.47;;
13879;SDS011;7010;48.200;16.332;2022-12-18T07:34:35;14.83;;;11.30;;
13879;SDS011;7010;48.200;16.332;2022-12-18T07:37:04;14.83;;;11.00;;
13879;SDS011;7010;48.200;16.332;2022-12-18T07:39:32;17.30;;;11.00;;
13879;SDS011;7010;48.200;16.332;2022-12-18T07:42:03;12.93;;;10.77;;
13879;SDS011;7010;48.200;16.332;2022-12-18T07:44:50;12.80;;;10.60;;
13879;SDS011;7010;48.200;16.332;2022-12-18T07:47:18;16.23;;;11.40;;
13879;SDS011;7010;48.200;16.332;2022-12-18T07:49:46;17.07;;;11.10;;
13879;SDS011;7010;48.200;16.332;2022-12-18T07:52:14;14.67;;;10.93;;
13879;SDS011;7010;48.200;16.332;2022-12-18T07:54:50;14.73;;;11.30;;
13879;SDS011;7010;48.200;16.332;2022-12-18T07:57:21;16.03;;;11.70;;
13879;SDS011;7010;48.200;16.332;2022-12-18T08:00:10;13.10;;;10.27;;
13879;SDS011;7010;48.200;16.332;2022-12-18T08:02:39;15.10;;;10.23;;
13879;SDS011;7010;48.200;16.332;2022-12-18T08:05:08;17.13;;;12.37;;
13879;SDS011;7010;48.200;16.332;2022-12-18T08:07:36;11.23;;;10.03;;
13879;SDS011;7010;48.200;16.332;2022-12-18T08:10:05;15.70;;;12.47;;
13879;SDS011;7010;48.200;16.332;2022-12-18T08:12:36;13.53;;;10.80;;
13879;SDS011;7010;48.200;16.332;2022-12-18T08:15:05;14.17;;;10.93;;
13879;SDS011;7010;48.200;16.332;2022-12-18T08:17:34;15.97;;;12.23;;
13879;SDS011;7010;48.200;16.332;2022-12-18T08:20:03;16.80;;;12.50;;
13879;SDS011;7010;48.200;16.332;2022-12-18T08:22:33;14.63;;;12.67;;
13879;SDS011;7010;48.200;16.332;2022-12-18T08:25:06;17.43;;;13.00;;
13879;SDS011;7010;48.200;16.332;2022-12-18T08:27:37;15.57;;;11.00;;
13879;SDS011;7010;48.200;16.332;2022-12-18T08:30:05;22.17;;;12.77;;
13879;SDS011;7010;48.200;16.332;2022-12-18T08:32:35;21.70;;;12.20;;
13879;SDS011;7010;48.200;16.332;2022-12-18T08:35:04;11.83;;;10.03;;
13879;SDS011;7010;48.200;16.332;2022-12-18T08:37:35;20.23;;;13.10;;
13879;SDS011;7010;48.200;16.332;2022-12-18T08:40:05;17.40;;;12.40;;
13879;SDS011;7010;48.200;16.332;2022-12-18T08:42:34;16.30;;;12.70;;
13879;SDS011;7010;48.200;16.332;2022-12-18T08:45:22;12.93;;;10.80;;
13879;SDS011;7010;48.200;16.332;2022-12-18T08:47:51;17.77;;;12.40;;
13879;SDS011;7010;48.200;16.332;2022-12-18T08:50:19;15.20;;;11.87;;
13879;SDS011;7010;48.200;16.332;2022-12-18T08:52:48;13.63;;;11.43;;
13879;SDS011;7010;48.200;16.332;2022-12-18T08:55:17;20.27;;;12.60;;
13879;SDS011;7010;48.200;16.332;2022-12-18T08:57:49;12.63;;;11.30;;
13879;SDS011;7010;48.200;16.332;2022-12-18T09:00:17;18.63;;;12.50;;
13879;SDS011;7010;48.200;16.332;2022-12-18T09:02:46;12.60;;;11.03;;
13879;SDS011;7010;48.200;16.332;2022-12-18T09:05:15;19.27;;;11.77;;
13879;SDS011;7010;48.200;16.332;2022-12-18T09:07:44;18.60;;;13.07;;
13879;SDS011;7010;48.200;16.332;2022-12-18T09:10:12;18.13;;;12.87;;
13879;SDS011;7010;48.200;16.332;2022-12-18T09:12:40;16.23;;;13.57;;
13879;SDS011;7010;48.200;16.332;2022-12-18T09:15:10;17.00;;;13.13;;
13879;SDS011;7010;48.200;16.332;2022-12-18T09:17:39;28.90;;;12.87;;
13879;SDS011;7010;48.200;16.332;2022-12-18T09:20:08;17.40;;;13.00;;
13879;SDS011;7010;48.200;16.332;2022-12-18T09:22:37;22.30;;;14.03;;
13879;SDS011;7010;48.200;16.332;2022-12-18T09:25:06;17.57;;;14.00;;
13879;SDS011;7010;48.200;16.332;2022-12-18T09:27:35;20.07;;;14.50;;
13879;SDS011;7010;48.200;16.332;2022-12-18T09:30:04;16.13;;;13.17;;
13879;SDS011;7010;48.200;16.332;2022-12-18T09:32:35;14.43;;;12.53;;
13879;SDS011;7010;48.200;16.332;2022-12-18T09:35:03;17.30;;;12.50;;
13879;SDS011;7010;48.200;16.332;2022-12-18T09:37:35;16.90;;;13.43;;
13879;SDS011;7010;48.200;16.332;2022-12-18T09:40:03;14.07;;;12.43;;
13879;SDS011;7010;48.200;16.332;2022-12-18T09:42:33;19.57;;;13.40;;
13879;SDS011;7010;48.200;16.332;2022-12-18T09:45:01;16.53;;;12.30;;
13879;SDS011;7010;48.200;16.332;2022-12-18T09:47:33;16.03;;;12.87;;
13879;SDS011;7010;48.200;16.332;2022-12-18T09:50:14;18.33;;;13.83;;
13879;SDS011;7010;48.200;16.332;2022-12-18T09:52:51;15.07;;;11.77;;
13879;SDS011;7010;48.200;16.332;2022-12-18T09:55:23;29.07;;;14.17;;
13879;SDS011;7010;48.200;16.332;2022-12-18T09:58:04;27.57;;;13.07;;
13879;SDS011;7010;48.200;16.332;2022-12-18T10:00:43;17.47;;;13.03;;
13879;SDS011;7010;48.200;16.332;2022-12-18T10:03:14;16.50;;;12.63;;
13879;SDS011;7010;48.200;16.332;2022-12-18T10:05:48;15.33;;;11.33;;
13879;SDS011;7010;48.200;16.332;2022-12-18T10:08:28;16.53;;;12.80;;
13879;SDS011;7010;48.200;16.332;2022-12-18T10:11:14;14.27;;;11.17;;
13879;SDS011;7010;48.200;16.332;2022-12-18T10:13:52;15.60;;;11.83;;
13879;SDS011;7010;48.200;16.332;2022-12-18T10:16:26;13.70;;;11.77;;
13879;SDS011;7010;48.200;16.332;2022-12-18T10:19:12;16.70;;;10.57;;
13879;SDS011;7010;48.200;16.332;2022-12-18T10:21:51;13.90;;;11.77;;
13879;SDS011;7010;48.200;16.332;2022-12-18T10:24:27;14.70;;;11.47;;
13879;SDS011;7010;48.200;16.332;2022-12-18T10:27:08;15.33;;;12.07;;
13879;SDS011;7010;48.200;16.332;2022-12-18T10:29:41;16.43;;;12.37;;
13879;SDS011;7010;48.200;16.332;2022-12-18T10:32:13;15.90;;;11.93;;
13879;SDS011;7010;48.200;16.332;2022-12-18T10:34:50;13.60;;;10.90;;
13879;SDS011;7010;48.200;16.332;2022-12-18T10:37:27;17.17;;;13.03;;
13879;SDS011;7010;48.200;16.332;2022-12-18T10:40:08;13.40;;;10.83;;
13879;SDS011;7010;48.200;16.332;2022-12-18T10:42:45;14.80;;;11.77;;
13879;SDS011;7010;48.200;16.332;2022-12-18T10:45:14;15.03;;;12.27;;
13879;SDS011;7010;48.200;16.332;2022-12-18T10:47:44;26.70;;;12.23;;
13879;SDS011;7010;48.200;16.332;2022-12-18T10:50:23;15.73;;;11.00;;
13879;SDS011;7010;48.200;16.332;2022-12-18T10:53:17;19.30;;;13.03;;
13879;SDS011;7010;48.200;16.332;2022-12-18T10:55:48;18.17;;;12.03;;
13879;SDS011;7010;48.200;16.332;2022-12-18T10:58:20;12.47;;;11.23;;
13879;SDS011;7010;48.200;16.332;2022-12-18T11:01:06;17.90;;;12.17;;
13879;SDS011;7010;48.200;16.332;2022-12-18T11:03:37;13.80;;;10.53;;
13879;SDS011;7010;48.200;16.332;2022-12-18T11:06:25;16.03;;;10.80;;
13879;SDS011;7010;48.200;16.332;2022-12-18T11:08:57;18.30;;;12.33;;
13879;SDS011;7010;48.200;16.332;2022-12-18T11:11:27;18.20;;;12.07;;
13879;SDS011;7010;48.200;16.332;2022-12-18T11:14:01;14.90;;;11.23;;
13879;SDS011;7010;48.200;16.332;2022-12-18T11:16:33;17.60;;;11.97;;
13879;SDS011;7010;48.200;16.332;2022-12-18T11:19:09;15.17;;;11.17;;
13879;SDS011;7010;48.200;16.332;2022-12-18T11:21:47;16.77;;;11.87;;
13879;SDS011;7010;48.200;16.332;2022-12-18T11:24:29;26.47;;;12.00;;
13879;SDS011;7010;48.200;16.332;2022-12-18T11:27:03;22.70;;;13.27;;
13879;SDS011;7010;48.200;16.332;2022-12-18T11:29:35;16.00;;;12.27;;
13879;SDS011;7010;48.200;16.332;2022-12-18T11:35:10;21.37;;;12.43;;
13879;SDS011;7010;48.200;16.332;2022-12-18T11:37:52;19.37;;;12.57;;
13879;SDS011;7010;48.200;16.332;2022-12-18T11:40:27;19.13;;;13.47;;
13879;SDS011;7010;48.200;16.332;2022-12-18T11:43:08;13.90;;;12.03;;
13879;SDS011;7010;48.200;16.332;2022-12-18T11:45:42;20.03;;;14.00;;
13879;SDS011;7010;48.200;16.332;2022-12-18T11:48:18;30.50;;;14.97;;
13879;SDS011;7010;48.200;16.332;2022-12-18T11:50:50;15.93;;;12.70;;
13879;SDS011;7010;48.200;16.332;2022-12-18T11:53:22;16.20;;;13.63;;
13879;SDS011;7010;48.200;16.332;2022-12-18T11:55:58;21.53;;;13.97;;
13879;SDS011;7010;48.200;16.332;2022-12-18T11:58:43;13.10;;;11.70;;
13879;SDS011;7010;48.200;16.332;2022-12-18T12:01:25;16.83;;;13.07;;
13879;SDS011;7010;48.200;16.332;2022-12-18T12:04:15;15.50;;;12.20;;
13879;SDS011;7010;48.200;16.332;2022-12-18T12:07:02;18.13;;;12.50;;
13879;SDS011;7010;48.200;16.332;2022-12-18T12:09:46;15.00;;;11.80;;
13879;SDS011;7010;48.200;16.332;2022-12-18T12:12:25;19.17;;;13.37;;
13879;SDS011;7010;48.200;16.332;2022-12-18T12:15:17;27.73;;;12.80;;
13879;SDS011;7010;48.200;16.332;2022-12-18T12:17:56;13.70;;;11.90;;
13879;SDS011;7010;48.200;16.332;2022-12-18T12:20:40;21.07;;;12.10;;
13879;SDS011;7010;48.200;16.332;2022-12-18T12:23:18;18.93;;;12.87;;
13879;SDS011;7010;48.200;16.332;2022-12-18T12:25:57;16.80;;;13.43;;
13879;SDS011;7010;48.200;16.332;2022-12-18T12:31:22;16.67;;;12.93;;
13879;SDS011;7010;48.200;16.332;2022-12-18T12:34:05;12.97;;;11.17;;
13879;SDS011;7010;48.200;16.332;2022-12-18T12:36:46;14.90;;;12.33;;
13879;SDS011;7010;48.200;16.332;2022-12-18T12:39:28;19.20;;;11.90;;
13879;SDS011;7010;48.200;16.332;2022-12-18T12:42:02;20.47;;;13.10;;
13879;SDS011;7010;48.200;16.332;2022-12-18T12:44:51;14.43;;;11.80;;
13879;SDS011;7010;48.200;16.332;2022-12-18T12:47:26;21.43;;;15.13;;
13879;SDS011;7010;48.200;16.332;2022-12-18T12:49:58;18.27;;;12.93;;
13879;SDS011;7010;48.200;16.332;2022-12-18T12:52:34;18.07;;;14.60;;
13879;SDS011;7010;48.200;16.332;2022-12-18T12:55:13;16.27;;;11.40;;
13879;SDS011;7010;48.200;16.332;2022-12-18T12:57:48;13.77;;;12.00;;
13879;SDS011;7010;48.200;16.332;2022-12-18T13:00:24;14.87;;;12.40;;
13879;SDS011;7010;48.200;16.332;2022-12-18T13:02:56;14.77;;;12.00;;
13879;SDS011;7010;48.200;16.332;2022-12-18T13:05:29;19.93;;;12.90;;
13879;SDS011;7010;48.200;16.332;2022-12-18T13:08:03;15.53;;;12.33;;
13879;SDS011;7010;48.200;16.332;2022-12-18T13:10:34;14.43;;;11.97;;
13879;SDS011;7010;48.200;16.332;2022-12-18T13:13:07;16.77;;;12.87;;
13879;SDS011;7010;48.200;16.332;2022-12-18T13:15:37;22.73;;;13.90;;
13879;SDS011;7010;48.200;16.332;2022-12-18T13:21:02;13.43;;;11.93;;
13879;SDS011;7010;48.200;16.332;2022-12-18T13:23:39;17.70;;;13.13;;
13879;SDS011;7010;48.200;16.332;2022-12-18T13:29:03;19.97;;;14.43;;
13879;SDS011;7010;48.200;16.332;2022-12-18T13:34:28;15.43;;;12.87;;
13879;SDS011;7010;48.200;16.332;2022-12-18T13:40:01;14.17;;;12.63;;
13879;SDS011;7010;48.200;16.332;2022-12-18T13:42:39;21.97;;;14.13;;
13879;SDS011;7010;48.200;16.332;2022-12-18T13:45:40;18.30;;;13.07;;
13879;SDS011;7010;48.200;16.332;2022-12-18T13:48:20;15.43;;;12.73;;
13879;SDS011;7010;48.200;16.332;2022-12-18T13:51:00;19.93;;;14.77;;
13879;SDS011;7010;48.200;16.332;2022-12-18T13:53:36;17.90;;;13.63;;
13879;SDS011;7010;48.200;16.332;2022-12-18T13:56:21;17.07;;;12.60;;
13879;SDS011;7010;48.200;16.332;2022-12-18T13:59:13;23.00;;;14.57;;
13879;SDS011;7010;48.200;16.332;2022-12-18T14:01:50;20.07;;;14.10;;
13879;SDS011;7010;48.200;16.332;2022-12-18T14:04:25;19.00;;;13.23;;
13879;SDS011;7010;48.200;16.332;2022-12-18T14:06:56;20.73;;;14.13;;
13879;SDS011;7010;48.200;16.332;2022-12-18T14:09:28;15.83;;;13.00;;
13879;SDS011;7010;48.200;16.332;2022-12-18T14:12:04;16.47;;;13.50;;
13879;SDS011;7010;48.200;16.332;2022-12-18T14:14:52;20.43;;;14.60;;
13879;SDS011;7010;48.200;16.332;2022-12-18T14:17:23;19.27;;;14.53;;
13879;SDS011;7010;48.200;16.332;2022-12-18T14:19:51;25.10;;;15.23;;
13879;SDS011;7010;48.200;16.332;2022-12-18T14:22:21;22.80;;;14.63;;
13879;SDS011;7010;48.200;16.332;2022-12-18T14:25:05;21.93;;;13.57;;
13879;SDS011;7010;48.200;16.332;2022-12-18T14:27:43;18.37;;;14.13;;
13879;SDS011;7010;48.200;16.332;2022-12-18T14:30:29;28.03;;;14.13;;
13879;SDS011;7010;48.200;16.332;2022-12-18T14:33:04;19.93;;;13.93;;
13879;SDS011;7010;48.200;16.332;2022-12-18T14:35:35;16.03;;;13.87;;
13879;SDS011;7010;48.200;16.332;2022-12-18T14:38:16;18.97;;;14.53;;
13879;SDS011;7010;48.200;16.332;2022-12-18T14:43:39;25.43;;;16.37;;
13879;SDS011;7010;48.200;16.332;2022-12-18T14:49:00;23.27;;;16.60;;
13879;SDS011;7010;48.200;16.332;2022-12-18T14:51:31;17.07;;;14.70;;
13879;SDS011;7010;48.200;16.332;2022-12-18T14:54:02;23.87;;;17.13;;
13879;SDS011;7010;48.200;16.332;2022-12-18T14:56:34;26.00;;;17.50;;
13879;SDS011;7010;48.200;16.332;2022-12-18T14:59:13;26.13;;;16.50;;
13879;SDS011;7010;48.200;16.332;2022-12-18T15:01:51;24.23;;;17.70;;
13879;SDS011;7010;48.200;16.332;2022-12-18T15:04:31;26.00;;;17.20;;
13879;SDS011;7010;48.200;16.332;2022-12-18T15:07:03;27.73;;;17.53;;
13879;SDS011;7010;48.200;16.332;2022-12-18T15:10:01;19.83;;;15.47;;
13879;SDS011;7010;48.200;16.332;2022-12-18T15:12:33;26.87;;;17.30;;
13879;SDS011;7010;48.200;16.332;2022-12-18T15:15:02;37.83;;;16.17;;
13879;SDS011;7010;48.200;16.332;2022-12-18T15:17:32;24.73;;;17.33;;
13879;SDS011;7010;48.200;16.332;2022-12-18T15:20:03;23.97;;;17.57;;
13879;SDS011;7010;48.200;16.332;2022-12-18T15:22:38;27.60;;;17.67;;
13879;SDS011;7010;48.200;16.332;2022-12-18T15:25:20;22.13;;;16.73;;